URKK Airport Information

Runway Information
Runway 05L Length 7218 ft width 160 ft
Elevation 107 ft Threshold 0 ft Heading 53
Runway 23R Length 7218 ft Width 160 ft
Elevation 111 ft Threshold 0 ft Heading 233
Runway 05R Length 9835 ft width 145 ft
Elevation 111 ft Threshold 0 ft Heading 53
Runway 23L Length 9835 ft Width 145 ft
Elevation 118 ft Threshold 0 ft Heading 233
Airport Frequencies
Type APP Name KRASNODAR Frequency 129.6 MHZ
Type ATIS Name KRASNODRA Frequency 121.8 MHZ
Type GND Name KRASNODAR Frequency 119 MHZ
Type RDR Name KRASNODAR Frequency 121.3 MHZ
Type TWR Name KRASNODAR Frequency 118.2 MHZ
Airport Navaids
Type NDB Name Krasnodar Frequency 750 KHZ
Type NDB Name Krasnodar Frequency 493 KHZ
Type NDB Name Krasnodar Frequency 493 KHZ
Type NDB Name Krasnodar Frequency 750 KHZ
Airport Weather Information & NOTAM
ADDS - METARS form results

(2215 UTC 18 February 2019)
Data provider http://aviationweather.gov/metar/data/
 
METAR text: URKK 182200Z 36003MPS CAVOK M02/M04 Q1021 R23L/CLRD70 NOSIG RMK QFE762
Conditions at: URKK (KRASNODAR , RU) observed 2200 UTC 18 February 2019
Temperature: -2.0°C (28°F)
Dewpoint: -4.0°C (25°F) [RH = 86%]
Pressure (altimeter): 30.15 inches Hg (1021.0 mb)
Winds: from the N (360 degrees) at 7 MPH (6 knots; 3.1 m/s)
Visibility: 6 or more miles (10+ km)
Ceiling: ceiling and visibility are OK
Clouds: unknown
Weather: no significant weather observed at this time

METAR text: URKK 182130Z 35003MPS 290V030 CAVOK M02/M04 Q1021 R23L/CLRD70 NOSIG RMK QFE762
Conditions at: URKK (KRASNODAR , RU) observed 2130 UTC 18 February 2019
Temperature: -2.0°C (28°F)
Dewpoint: -4.0°C (25°F) [RH = 86%]
Pressure (altimeter): 30.15 inches Hg (1021.0 mb)
Winds: from the N (350 degrees) at 7 MPH (6 knots; 3.1 m/s)
Visibility: 6 or more miles (10+ km)
Ceiling: ceiling and visibility are OK
Clouds: unknown
Weather: no significant weather observed at this time

Forecast for: URKK (KRASNODAR , RU)
Text: TAF URKK 181955Z 1821/1921 34003G08MPS 9999 SCT020
Forecast period: 2100 UTC 18 February 2019 to 0300 UTC 19 February 2019
Forecast type: FROM: standard forecast or significant change
Winds: from the NNW (340 degrees) at 7 MPH (6 knots; 3.1 m/s)
gusting to 18 MPH (16 knots; 8.2 m/s)
Visibility: 6 or more miles 10+ km)
Ceiling: at least 12,000 feet AGL
Clouds: scattered clouds at 2000 feet AGL
Weather: no significant weather forecast for this period
Text: BECMG 1903/1905 05006G11MPS
Forecast period: 0300 to 2100 UTC 19 February 2019
Forecast type: BECOMING: Conditions expected to become as follows by 0500 UTC 19 February 2019
Winds: from the NE (50 degrees) at 14 MPH (12 knots; 6.2 m/s)
gusting to 24 MPH (21 knots; 10.8 m/s)
Visibility: 6 or more miles 10+ km)
Ceiling: at least 12,000 feet AGL
Clouds: scattered clouds at 2000 feet AGL
Weather: no significant weather forecast for this period